Time;durP1;ratioP1;P1;durP2;ratioP2;P2;SDS_P1;SDS_P2;PMS_P1;PMS_P2;Temp;Humidity;BMP_temperature;BMP_pressure;BME280_temperature;BME280_humidity;BME280_pressure;Samples;Min_cycle;Max_cycle;Signal;HPM_P1;HPM_P2
2021/05/16 00:00:57;;;;;;;;;;;11.30;99.90;;;;;;5021515;28;19937;-84
2021/05/16 00:03:23;;;;;;;;;;;11.30;99.90;;;;;;5022005;28;19920;-85
2021/05/16 00:05:50;;;;;;;;;;;11.20;99.90;;;;;;5002531;28;19944;-85
2021/05/16 00:08:15;;;;;;;;;;;11.20;99.90;;;;;;5002484;28;19977;-85
2021/05/16 00:10:42;;;;;;;;;;;11.30;99.90;;;;;;5021225;28;19956;-83
2021/05/16 00:13:07;;;;;;;;;;;11.40;99.90;;;;;;5022491;28;19913;-84
2021/05/16 00:15:34;;;;;;;;;;;11.40;99.90;;;;;;5035846;28;19913;-83
2021/05/16 00:17:59;;;;;;;;;;;11.40;99.90;;;;;;5022091;28;19920;-84
2021/05/16 00:20:26;;;;;;;;;;;11.40;99.90;;;;;;5003467;28;19917;-83
2021/05/16 00:22:52;;;;;;;;;;;11.40;99.90;;;;;;5020416;28;19918;-83
2021/05/16 00:25:18;;;;;;;;;;;11.40;99.90;;;;;;5015551;28;19917;-85
2021/05/16 00:27:44;;;;;;;;;;;11.40;99.90;;;;;;5016765;28;19917;-83
2021/05/16 00:30:11;;;;;;;;;;;11.40;99.90;;;;;;5017268;28;19960;-84
2021/05/16 00:32:37;;;;;;;;;;;11.50;99.90;;;;;;5015999;28;19920;-84
2021/05/16 00:35:04;;;;;;;;;;;11.50;99.90;;;;;;5015601;28;20015;-83
2021/05/16 00:37:30;;;;;;;;;;;11.50;99.90;;;;;;5013267;28;19913;-84
2021/05/16 00:39:57;;;;;;;;;;;11.50;99.90;;;;;;5015715;28;19920;-85
2021/05/16 00:42:22;;;;;;;;;;;11.50;99.90;;;;;;5018261;28;19920;-83
2021/05/16 00:45:03;;;;;;;;;;;11.60;99.90;;;;;;5017180;28;19918;-81
2021/05/16 00:47:28;;;;;;;;;;;11.50;99.90;;;;;;5016900;28;20358;-84
2021/05/16 00:49:57;;;;;;;;;;;11.60;99.90;;;;;;4996101;28;19957;-85
2021/05/16 00:52:23;;;;;;;;;;;11.60;99.90;;;;;;4996054;28;20285;-85
2021/05/16 00:54:49;;;;;;;;;;;11.60;99.90;;;;;;4994278;28;20369;-85
2021/05/16 00:57:15;;;;;;;;;;;11.60;99.90;;;;;;4995530;28;19920;-85
2021/05/16 00:59:40;;;;;;;;;;;11.60;99.90;;;;;;4994795;28;19913;-86
2021/05/16 01:02:06;;;;;;;;;;;11.60;99.90;;;;;;5026405;28;19914;-85
2021/05/16 01:04:31;;;;;;;;;;;11.60;99.90;;;;;;4993873;28;19960;-84
2021/05/16 01:06:57;;;;;;;;;;;11.60;99.90;;;;;;4996500;28;19918;-85
2021/05/16 01:09:23;;;;;;;;;;;11.70;99.90;;;;;;4994419;28;19914;-85
2021/05/16 01:11:50;;;;;;;;;;;11.70;99.90;;;;;;4993768;28;19914;-85
2021/05/16 01:14:20;;;;;;;;;;;11.80;99.90;;;;;;4997102;28;20009;-84
2021/05/16 01:16:46;;;;;;;;;;;11.70;99.90;;;;;;4992300;28;19914;-84
2021/05/16 01:19:11;;;;;;;;;;;11.70;99.90;;;;;;4994286;28;19960;-84
2021/05/16 01:21:38;;;;;;;;;;;11.80;99.90;;;;;;4994013;28;19913;-85
2021/05/16 01:24:13;;;;;;;;;;;11.80;99.90;;;;;;4996075;28;20390;-85
2021/05/16 01:26:39;;;;;;;;;;;11.80;99.90;;;;;;4999730;28;19928;-85
2021/05/16 01:29:04;;;;;;;;;;;11.80;99.90;;;;;;4996407;28;19913;-85
2021/05/16 01:31:29;;;;;;;;;;;11.80;99.90;;;;;;4996147;28;19997;-85
2021/05/16 01:33:55;;;;;;;;;;;11.80;99.90;;;;;;4998515;28;19941;-86
2021/05/16 01:36:20;;;;;;;;;;;11.70;99.90;;;;;;4996353;28;20374;-85
2021/05/16 01:38:46;;;;;;;;;;;11.70;99.90;;;;;;4997632;28;19969;-84
2021/05/16 01:41:11;;;;;;;;;;;11.70;99.90;;;;;;4995984;28;19914;-84
2021/05/16 01:43:38;;;;;;;;;;;11.60;99.90;;;;;;5001754;28;19957;-85
2021/05/16 01:46:05;;;;;;;;;;;11.60;99.90;;;;;;4997091;28;19968;-85
2021/05/16 01:48:30;;;;;;;;;;;11.50;99.90;;;;;;4997201;28;19914;-85
2021/05/16 01:50:55;;;;;;;;;;;11.50;99.90;;;;;;5002371;28;19960;-85
2021/05/16 01:53:21;;;;;;;;;;;11.40;99.90;;;;;;5015430;28;19945;-82
2021/05/16 01:55:46;;;;;;;;;;;11.40;99.90;;;;;;5017859;28;19902;-85
2021/05/16 01:58:12;;;;;;;;;;;11.40;99.90;;;;;;5020008;28;19909;-82
2021/05/16 02:00:40;;;;;;;;;;;11.40;99.90;;;;;;5021608;28;19925;-83
2021/05/16 02:03:05;;;;;;;;;;;11.40;99.90;;;;;;5021155;28;19901;-82
2021/05/16 02:05:31;;;;;;;;;;;11.40;99.90;;;;;;5020840;28;19973;-82
2021/05/16 02:07:58;;;;;;;;;;;11.40;99.90;;;;;;5021921;28;19980;-82
2021/05/16 02:10:23;;;;;;;;;;;11.50;99.90;;;;;;5020366;28;19929;-83
2021/05/16 02:12:49;;;;;;;;;;;11.50;99.90;;;;;;5014265;28;20302;-84
2021/05/16 02:15:15;;;;;;;;;;;11.50;99.90;;;;;;5003250;28;19918;-83
2021/05/16 02:17:42;;;;;;;;;;;11.60;99.90;;;;;;5002652;28;19920;-84
2021/05/16 02:20:09;;;;;;;;;;;11.60;99.90;;;;;;5000949;28;19914;-82
2021/05/16 02:22:35;;;;;;;;;;;11.60;99.90;;;;;;4997703;28;19949;-85
2021/05/16 02:25:00;;;;;;;;;;;11.60;99.90;;;;;;4998892;28;20412;-85
2021/05/16 02:27:26;;;;;;;;;;;11.50;99.90;;;;;;5013208;28;19921;-85
2021/05/16 02:29:52;;;;;;;;;;;11.50;99.90;;;;;;5003902;28;19949;-84
2021/05/16 02:32:17;;;;;;;;;;;11.50;99.90;;;;;;4999951;28;19914;-84
2021/05/16 02:34:43;;;;;;;;;;;11.40;99.90;;;;;;5001850;28;20270;-84
2021/05/16 02:37:08;;;;;;;;;;;11.40;99.90;;;;;;5002587;28;19920;-83
2021/05/16 02:39:34;;;;;;;;;;;11.40;99.90;;;;;;5005791;28;19949;-83
2021/05/16 02:41:59;;;;;;;;;;;11.40;99.90;;;;;;5007381;28;19921;-82
2021/05/16 02:44:25;;;;;;;;;;;11.40;99.90;;;;;;5001705;28;19922;-83
2021/05/16 02:46:50;;;;;;;;;;;11.40;99.90;;;;;;5004779;28;19973;-83
2021/05/16 02:49:16;;;;;;;;;;;11.40;99.90;;;;;;5019617;28;19917;-82
2021/05/16 02:51:41;;;;;;;;;;;11.40;99.90;;;;;;5009608;28;19957;-83
2021/05/16 02:54:07;;;;;;;;;;;11.40;99.90;;;;;;5022199;28;20001;-81
2021/05/16 02:56:32;;;;;;;;;;;11.40;99.90;;;;;;5019873;28;19956;-83
2021/05/16 02:58:58;;;;;;;;;;;11.40;99.90;;;;;;5004551;28;19924;-82
2021/05/16 03:01:24;;;;;;;;;;;11.40;99.90;;;;;;5009531;28;20321;-83
2021/05/16 03:03:49;;;;;;;;;;;11.40;99.90;;;;;;5008850;28;19944;-83
2021/05/16 03:06:15;;;;;;;;;;;11.40;99.90;;;;;;5025004;28;20012;-84
2021/05/16 03:08:40;;;;;;;;;;;11.30;99.90;;;;;;5028197;28;19920;-84
2021/05/16 03:11:06;;;;;;;;;;;11.30;99.90;;;;;;5020405;28;19914;-84
2021/05/16 03:13:32;;;;;;;;;;;11.30;99.90;;;;;;5023767;28;19929;-81
2021/05/16 03:15:57;;;;;;;;;;;11.30;99.90;;;;;;5009084;28;19936;-81
2021/05/16 03:18:23;;;;;;;;;;;11.30;99.90;;;;;;5007719;28;19971;-76
2021/05/16 03:20:48;;;;;;;;;;;11.30;99.90;;;;;;5025946;28;20369;-82
2021/05/16 03:23:14;;;;;;;;;;;11.30;99.90;;;;;;5028592;28;20320;-82
2021/05/16 03:25:40;;;;;;;;;;;11.30;99.90;;;;;;5010638;28;19921;-82
2021/05/16 03:28:05;;;;;;;;;;;11.30;99.90;;;;;;5013771;28;19913;-82
2021/05/16 03:30:32;;;;;;;;;;;11.30;99.90;;;;;;5008107;28;20366;-82
2021/05/16 03:32:57;;;;;;;;;;;11.30;99.90;;;;;;5023684;28;19913;-82
2021/05/16 03:35:23;;;;;;;;;;;11.20;99.90;;;;;;5021331;28;19920;-82
2021/05/16 03:37:48;;;;;;;;;;;11.30;99.90;;;;;;5021121;28;20005;-82
2021/05/16 03:40:14;;;;;;;;;;;11.30;99.90;;;;;;5002194;28;19921;-84
2021/05/16 03:42:40;;;;;;;;;;;11.30;99.90;;;;;;5020194;28;19913;-83
2021/05/16 03:45:06;;;;;;;;;;;11.30;99.90;;;;;;5031378;28;19917;-83
2021/05/16 03:47:32;;;;;;;;;;;11.30;99.90;;;;;;5032801;28;19914;-83
2021/05/16 03:49:57;;;;;;;;;;;11.20;99.90;;;;;;4999638;28;19913;-83
2021/05/16 03:52:23;;;;;;;;;;;11.30;99.90;;;;;;4998542;28;20477;-85
2021/05/16 03:54:49;;;;;;;;;;;11.20;99.90;;;;;;5015624;28;19913;-84
2021/05/16 03:57:15;;;;;;;;;;;11.20;99.90;;;;;;5015714;28;19917;-85
2021/05/16 03:59:40;;;;;;;;;;;11.20;99.90;;;;;;5016286;28;19940;-84
2021/05/16 04:02:06;;;;;;;;;;;11.20;99.90;;;;;;5010974;28;19913;-82
2021/05/16 04:04:31;;;;;;;;;;;11.20;99.90;;;;;;5031466;28;19905;-83
2021/05/16 04:06:57;;;;;;;;;;;11.20;99.90;;;;;;5023344;28;19902;-82
2021/05/16 04:09:22;;;;;;;;;;;11.20;99.90;;;;;;5035372;28;19968;-82
2021/05/16 04:11:48;;;;;;;;;;;11.20;99.90;;;;;;5036927;28;19909;-83
2021/05/16 04:14:15;;;;;;;;;;;11.20;99.90;;;;;;5021469;28;19917;-83
2021/05/16 04:16:41;;;;;;;;;;;11.20;99.90;;;;;;5037664;28;19908;-82
2021/05/16 04:19:06;;;;;;;;;;;11.10;99.90;;;;;;5018069;28;19918;-82
2021/05/16 04:21:32;;;;;;;;;;;11.20;99.90;;;;;;5032489;28;19918;-83
2021/05/16 04:23:57;;;;;;;;;;;11.10;99.90;;;;;;5019389;28;20350;-83
2021/05/16 04:26:23;;;;;;;;;;;11.20;99.90;;;;;;5019315;28;19921;-84
2021/05/16 04:28:48;;;;;;;;;;;11.20;99.90;;;;;;5021561;28;19957;-83
2021/05/16 04:31:14;;;;;;;;;;;11.20;99.90;;;;;;5016535;28;19925;-83
2021/05/16 04:33:39;;;;;;;;;;;11.20;99.90;;;;;;4998869;28;19921;-84
2021/05/16 04:36:05;;;;;;;;;;;11.30;99.90;;;;;;4996623;28;20361;-83
2021/05/16 04:38:30;;;;;;;;;;;11.30;99.90;;;;;;4998638;28;19913;-80
2021/05/16 04:40:56;;;;;;;;;;;11.30;99.90;;;;;;5014969;28;19913;-84
2021/05/16 04:43:22;;;;;;;;;;;11.30;99.90;;;;;;4996796;28;19914;-81
2021/05/16 04:45:47;;;;;;;;;;;11.30;99.90;;;;;;4998182;28;19921;-83
2021/05/16 04:48:13;;;;;;;;;;;11.40;99.90;;;;;;4999997;28;19968;-83
2021/05/16 04:50:38;;;;;;;;;;;11.40;99.90;;;;;;5014109;28;21599;-84
2021/05/16 04:53:03;;;;;;;;;;;11.40;99.90;;;;;;5011134;28;19922;-83
2021/05/16 04:55:29;;;;;;;;;;;11.50;99.90;;;;;;4997917;28;20385;-82
2021/05/16 04:57:54;;;;;;;;;;;11.50;99.90;;;;;;4994318;28;19932;-83
2021/05/16 05:00:20;;;;;;;;;;;11.40;99.90;;;;;;4992992;28;19960;-84
2021/05/16 05:02:47;;;;;;;;;;;11.40;99.90;;;;;;5000913;28;19925;-83
2021/05/16 05:05:13;;;;;;;;;;;11.40;99.90;;;;;;4998199;28;19922;-83
2021/05/16 05:07:41;;;;;;;;;;;11.40;99.90;;;;;;4996054;28;20370;-83
2021/05/16 05:10:07;;;;;;;;;;;11.30;99.90;;;;;;5012961;28;19914;-83
2021/05/16 05:12:32;;;;;;;;;;;11.20;99.90;;;;;;4997695;28;19914;-83
2021/05/16 05:14:58;;;;;;;;;;;11.20;99.90;;;;;;4997770;28;20381;-82
2021/05/16 05:17:24;;;;;;;;;;;11.10;99.90;;;;;;4996332;28;19918;-83
2021/05/16 05:19:49;;;;;;;;;;;11.10;99.90;;;;;;5000031;28;20374;-82
2021/05/16 05:22:15;;;;;;;;;;;11.20;99.90;;;;;;4996186;28;20293;-81
2021/05/16 05:24:40;;;;;;;;;;;11.10;99.90;;;;;;4996323;28;19925;-82
2021/05/16 05:27:06;;;;;;;;;;;11.20;99.90;;;;;;4996958;28;20370;-82
2021/05/16 05:29:31;;;;;;;;;;;11.20;99.90;;;;;;4996113;28;20393;-81
2021/05/16 05:31:57;;;;;;;;;;;11.20;99.90;;;;;;4999911;28;19936;-82
2021/05/16 05:34:25;;;;;;;;;;;11.20;99.90;;;;;;5015645;28;20353;-81
2021/05/16 05:36:51;;;;;;;;;;;11.20;99.90;;;;;;5014053;28;19914;-80
2021/05/16 05:39:17;;;;;;;;;;;11.20;99.90;;;;;;5004261;28;19926;-81
2021/05/16 05:41:44;;;;;;;;;;;11.20;99.90;;;;;;5003676;28;19929;-81
2021/05/16 05:44:10;;;;;;;;;;;11.30;99.90;;;;;;5027830;28;19917;-80
2021/05/16 05:46:36;;;;;;;;;;;11.30;99.90;;;;;;5008113;28;19953;-81
2021/05/16 05:49:01;;;;;;;;;;;11.30;99.90;;;;;;5007454;28;20297;-81
2021/05/16 05:51:27;;;;;;;;;;;11.30;99.90;;;;;;5012176;28;19935;-77
2021/05/16 05:53:52;;;;;;;;;;;11.40;99.90;;;;;;5016463;28;19924;-76
2021/05/16 05:56:18;;;;;;;;;;;11.60;99.90;;;;;;5030836;28;19918;-80
2021/05/16 05:58:43;;;;;;;;;;;11.70;99.90;;;;;;5029321;28;19918;-81
2021/05/16 06:01:09;;;;;;;;;;;11.80;99.90;;;;;;5015294;28;19941;-80
2021/05/16 06:03:34;;;;;;;;;;;12.20;99.90;;;;;;5015843;28;19902;-81
2021/05/16 06:06:00;;;;;;;;;;;13.20;99.90;;;;;;5036790;28;19902;-80
2021/05/16 06:08:25;;;;;;;;;;;13.70;99.90;;;;;;5031715;28;19897;-81
2021/05/16 06:10:51;;;;;;;;;;;13.90;99.90;;;;;;5033583;28;19913;-80
2021/05/16 06:13:16;;;;;;;;;;;13.90;99.90;;;;;;5036631;28;19968;-80
2021/05/16 06:15:42;;;;;;;;;;;14.90;99.90;;;;;;5034503;28;19960;-81
2021/05/16 06:18:08;;;;;;;;;;;15.90;99.90;;;;;;5027548;28;19968;-80
2021/05/16 06:20:33;;;;;;;;;;;16.10;99.90;;;;;;5014094;28;19924;-81
2021/05/16 06:23:01;;;;;;;;;;;15.40;99.90;;;;;;5027241;28;19967;-81
2021/05/16 06:25:26;;;;;;;;;;;15.10;99.90;;;;;;5034094;28;19921;-79
2021/05/16 06:27:52;;;;;;;;;;;14.30;99.90;;;;;;5044365;28;19912;-78
2021/05/16 06:30:20;;;;;;;;;;;13.90;99.90;;;;;;5020796;28;19923;-82
2021/05/16 06:32:45;;;;;;;;;;;13.50;99.90;;;;;;5026353;28;19901;-80
2021/05/16 06:35:11;;;;;;;;;;;13.20;99.90;;;;;;5022615;28;19905;-75
2021/05/16 06:37:37;;;;;;;;;;;13.00;99.90;;;;;;5052102;28;19982;-79
2021/05/16 06:40:02;;;;;;;;;;;12.90;99.90;;;;;;5026947;28;19913;-80
2021/05/16 06:42:28;;;;;;;;;;;12.80;99.90;;;;;;5028952;28;19914;-78
2021/05/16 06:44:54;;;;;;;;;;;12.70;99.90;;;;;;5010424;28;19937;-80
2021/05/16 06:47:20;;;;;;;;;;;12.60;99.90;;;;;;5007535;28;19921;-80
2021/05/16 06:49:52;;;;;;;;;;;12.50;99.90;;;;;;5020778;28;19951;-80
2021/05/16 06:52:18;;;;;;;;;;;12.60;99.90;;;;;;4998133;28;19949;-81
2021/05/16 06:54:43;;;;;;;;;;;13.20;99.90;;;;;;4996228;28;19928;-79
2021/05/16 06:57:09;;;;;;;;;;;13.40;99.90;;;;;;4996656;28;19957;-80
2021/05/16 06:59:34;;;;;;;;;;;13.70;99.90;;;;;;5000306;28;19940;-81
2021/05/16 07:02:00;;;;;;;;;;;14.50;99.90;;;;;;5000269;28;19925;-79
2021/05/16 07:04:25;;;;;;;;;;;14.80;99.90;;;;;;4999256;28;19921;-80
2021/05/16 07:06:51;;;;;;;;;;;15.10;99.90;;;;;;4998517;28;20392;-80
2021/05/16 07:09:16;;;;;;;;;;;14.90;99.90;;;;;;4987039;28;19921;-81
2021/05/16 07:11:41;;;;;;;;;;;14.60;99.90;;;;;;4993480;28;19914;-81
2021/05/16 07:14:07;;;;;;;;;;;14.20;99.90;;;;;;4994241;28;19914;-81
2021/05/16 07:16:32;;;;;;;;;;;13.80;99.90;;;;;;4992113;28;20452;-80
2021/05/16 07:18:58;;;;;;;;;;;13.50;99.90;;;;;;4995085;28;20567;-80
2021/05/16 07:21:24;;;;;;;;;;;13.30;99.90;;;;;;4994229;28;20370;-81
2021/05/16 07:23:49;;;;;;;;;;;13.10;99.90;;;;;;4989838;28;19918;-82
2021/05/16 07:26:15;;;;;;;;;;;12.90;99.90;;;;;;4982529;28;20294;-81
2021/05/16 07:28:40;;;;;;;;;;;12.80;99.90;;;;;;4994446;28;20251;-82
2021/05/16 07:31:06;;;;;;;;;;;13.00;99.90;;;;;;4993699;28;19921;-82
2021/05/16 07:33:31;;;;;;;;;;;13.30;99.90;;;;;;4993859;28;19914;-81
2021/05/16 07:35:58;;;;;;;;;;;13.60;99.90;;;;;;5006813;28;20013;-81
2021/05/16 07:38:24;;;;;;;;;;;13.90;99.90;;;;;;5019900;28;19918;-79
2021/05/16 07:40:49;;;;;;;;;;;14.10;99.90;;;;;;5013282;28;19914;-82
2021/05/16 07:43:15;;;;;;;;;;;13.90;99.90;;;;;;4988275;28;19968;-82
2021/05/16 07:45:40;;;;;;;;;;;13.90;99.90;;;;;;4992057;28;20093;-81
2021/05/16 07:48:06;;;;;;;;;;;13.90;99.90;;;;;;4983787;28;19918;-81
2021/05/16 07:50:32;;;;;;;;;;;13.70;99.90;;;;;;4987685;28;20399;-82
2021/05/16 07:52:57;;;;;;;;;;;13.70;99.90;;;;;;5006470;28;20127;-82
2021/05/16 07:55:23;;;;;;;;;;;13.90;99.90;;;;;;5010921;28;19920;-82
2021/05/16 07:57:48;;;;;;;;;;;13.90;99.90;;;;;;5011108;28;19913;-83
2021/05/16 08:00:14;;;;;;;;;;;13.90;99.90;;;;;;5011075;28;20341;-80
2021/05/16 08:02:40;;;;;;;;;;;14.10;99.90;;;;;;5004093;28;20281;-82
2021/05/16 08:05:06;;;;;;;;;;;14.20;99.90;;;;;;4999427;28;19947;-83
2021/05/16 08:07:31;;;;;;;;;;;14.50;99.90;;;;;;5013287;28;19914;-83
2021/05/16 08:09:57;;;;;;;;;;;14.80;99.90;;;;;;5018944;28;19981;-81
2021/05/16 08:12:22;;;;;;;;;;;15.00;99.90;;;;;;4995801;28;19914;-82
2021/05/16 08:14:48;;;;;;;;;;;15.30;99.90;;;;;;5007991;28;20362;-83
2021/05/16 08:17:14;;;;;;;;;;;15.50;99.90;;;;;;5006437;28;19924;-82
2021/05/16 08:19:40;;;;;;;;;;;15.80;99.90;;;;;;4994784;28;19913;-83
2021/05/16 08:22:09;;;;;;;;;;;15.80;99.90;;;;;;4994908;28;20252;-84
2021/05/16 08:24:35;;;;;;;;;;;15.90;99.90;;;;;;4993983;28;19957;-82
2021/05/16 08:27:01;;;;;;;;;;;16.00;99.90;;;;;;4980173;28;20341;-84
2021/05/16 08:29:26;;;;;;;;;;;15.90;99.90;;;;;;4985810;28;19921;-83
2021/05/16 08:31:54;;;;;;;;;;;15.70;99.90;;;;;;5017208;28;20383;-84
2021/05/16 08:34:19;;;;;;;;;;;15.40;99.90;;;;;;5002865;28;19916;-82
2021/05/16 08:36:45;;;;;;;;;;;15.20;99.90;;;;;;5008561;28;20441;-82
2021/05/16 08:39:10;;;;;;;;;;;15.10;99.90;;;;;;4997102;28;19921;-82
2021/05/16 08:41:36;;;;;;;;;;;14.90;99.90;;;;;;5030870;28;19956;-84
2021/05/16 08:44:06;;;;;;;;;;;15.00;99.90;;;;;;5030269;28;19917;-83
2021/05/16 08:46:32;;;;;;;;;;;15.10;99.90;;;;;;5032848;28;19914;-84
2021/05/16 08:48:57;;;;;;;;;;;15.30;99.90;;;;;;5017728;28;19913;-83
2021/05/16 08:51:23;;;;;;;;;;;15.20;99.90;;;;;;5019892;28;19916;-80
2021/05/16 08:53:49;;;;;;;;;;;15.10;99.90;;;;;;5039642;28;19943;-81
2021/05/16 08:56:15;;;;;;;;;;;14.80;99.90;;;;;;5021648;28;19918;-82
2021/05/16 08:58:41;;;;;;;;;;;15.00;99.90;;;;;;5042244;28;19924;-84
2021/05/16 09:01:16;;;;;;;;;;;15.50;99.90;;;;;;5055075;28;19932;-82
2021/05/16 09:03:41;;;;;;;;;;;16.10;99.90;;;;;;5037745;28;19898;-82
2021/05/16 09:06:07;;;;;;;;;;;16.20;99.90;;;;;;5049548;28;19940;-79
2021/05/16 09:08:32;;;;;;;;;;;16.00;99.90;;;;;;5026277;28;19908;-82
2021/05/16 09:10:59;;;;;;;;;;;15.80;99.90;;;;;;5013877;28;19914;-84
2021/05/16 09:13:28;;;;;;;;;;;15.40;99.90;;;;;;5009731;28;19917;-83
2021/05/16 09:16:06;;;;;;;;;;;15.00;99.90;;;;;;5018506;28;19909;-83
2021/05/16 09:18:32;;;;;;;;;;;14.50;99.90;;;;;;5022319;28;20004;-83
2021/05/16 09:21:13;;;;;;;;;;;13.90;99.90;;;;;;5006293;28;19945;-84
2021/05/16 09:23:39;;;;;;;;;;;13.50;99.90;;;;;;5023218;28;19913;-84
2021/05/16 09:26:11;;;;;;;;;;;13.00;99.90;;;;;;5011510;28;20296;-83
2021/05/16 09:28:37;;;;;;;;;;;12.90;99.90;;;;;;5006839;28;19914;-83
2021/05/16 09:31:06;;;;;;;;;;;12.80;99.90;;;;;;5012066;28;19898;-82
2021/05/16 09:33:32;;;;;;;;;;;12.60;99.90;;;;;;5027388;28;19957;-83
2021/05/16 09:36:03;;;;;;;;;;;12.70;99.90;;;;;;4997118;28;19917;-83
2021/05/16 09:38:28;;;;;;;;;;;12.70;99.90;;;;;;5018333;28;19921;-82
2021/05/16 09:40:55;;;;;;;;;;;12.70;99.90;;;;;;5028793;28;19984;-83
2021/05/16 09:43:27;;;;;;;;;;;12.90;99.90;;;;;;5019622;28;19913;-84
2021/05/16 09:45:57;;;;;;;;;;;13.30;99.90;;;;;;5008153;28;19917;-83
2021/05/16 09:48:29;;;;;;;;;;;13.70;99.90;;;;;;5021993;28;19909;-82
2021/05/16 09:51:08;;;;;;;;;;;14.10;99.90;;;;;;5026275;28;19917;-85
2021/05/16 09:53:44;;;;;;;;;;;14.30;99.90;;;;;;5011619;28;19922;-84
2021/05/16 09:56:13;;;;;;;;;;;14.10;99.90;;;;;;5030253;28;19913;-90
2021/05/16 09:58:39;;;;;;;;;;;13.60;99.90;;;;;;5029094;28;20388;-84
2021/05/16 10:01:04;;;;;;;;;;;13.10;99.90;;;;;;5011483;28;19917;-84
2021/05/16 10:03:30;;;;;;;;;;;12.40;99.90;;;;;;5001131;28;20011;-84
2021/05/16 10:05:56;;;;;;;;;;;12.00;99.90;;;;;;4996409;28;20358;-83
2021/05/16 10:08:22;;;;;;;;;;;11.30;99.90;;;;;;4995075;28;19964;-83
2021/05/16 10:10:47;;;;;;;;;;;11.00;99.90;;;;;;5007543;28;19917;-81
2021/05/16 10:13:13;;;;;;;;;;;10.70;99.90;;;;;;4990695;28;19983;-83
2021/05/16 10:15:40;;;;;;;;;;;10.50;99.90;;;;;;4992777;28;19948;-83
2021/05/16 10:18:07;;;;;;;;;;;10.40;99.90;;;;;;4985952;28;19961;-85
2021/05/16 10:20:33;;;;;;;;;;;10.20;99.90;;;;;;4990468;28;20277;-82
2021/05/16 10:23:03;;;;;;;;;;;10.00;99.90;;;;;;4996539;28;19996;-83
2021/05/16 10:25:38;;;;;;;;;;;9.90;99.90;;;;;;4991677;28;19918;-83
2021/05/16 10:28:03;;;;;;;;;;;9.90;99.90;;;;;;4994829;28;19976;-82
2021/05/16 10:30:29;;;;;;;;;;;10.00;99.90;;;;;;4992275;28;19996;-81
2021/05/16 10:32:54;;;;;;;;;;;10.10;99.90;;;;;;4995635;28;20004;-82
2021/05/16 10:35:21;;;;;;;;;;;10.10;99.90;;;;;;4995611;28;20286;-81
2021/05/16 10:37:53;;;;;;;;;;;10.00;99.90;;;;;;4995191;28;20012;-82
2021/05/16 10:40:29;;;;;;;;;;;10.10;99.90;;;;;;5010543;28;19920;-81
2021/05/16 10:43:02;;;;;;;;;;;10.40;99.90;;;;;;4993466;28;20005;-81
2021/05/16 10:45:34;;;;;;;;;;;11.00;99.90;;;;;;4993418;28;19926;-81
2021/05/16 10:48:06;;;;;;;;;;;11.40;99.90;;;;;;4996004;28;20413;-81
2021/05/16 10:50:35;;;;;;;;;;;11.70;99.90;;;;;;5011101;28;19940;-81
2021/05/16 10:53:05;;;;;;;;;;;11.90;99.90;;;;;;5008203;28;20275;-80
2021/05/16 10:55:32;;;;;;;;;;;12.20;99.90;;;;;;4997030;28;19914;-86
2021/05/16 10:57:58;;;;;;;;;;;12.60;99.90;;;;;;4997502;28;19920;-80
2021/05/16 11:00:25;;;;;;;;;;;13.00;99.90;;;;;;4997218;28;19925;-82
2021/05/16 11:03:07;;;;;;;;;;;13.20;99.90;;;;;;5013146;28;19913;-78
2021/05/16 11:08:17;;;;;;;;;;;12.80;99.90;;;;;;5014420;28;19929;-81
2021/05/16 11:10:47;;;;;;;;;;;12.40;99.90;;;;;;5017992;28;19921;-82
2021/05/16 11:13:28;;;;;;;;;;;12.30;99.90;;;;;;5027328;28;19902;-81
2021/05/16 11:15:55;;;;;;;;;;;12.10;99.90;;;;;;5019311;28;19918;-78
2021/05/16 11:18:24;;;;;;;;;;;11.90;99.90;;;;;;5032518;28;19918;-80
2021/05/16 11:20:51;;;;;;;;;;;11.90;99.90;;;;;;5032610;28;19945;-80
2021/05/16 11:23:52;;;;;;;;;;;11.90;99.90;;;;;;5029777;28;20285;-81
2021/05/16 11:26:21;;;;;;;;;;;11.70;99.90;;;;;;4961311;28;20065;-81
2021/05/16 11:28:49;;;;;;;;;;;11.60;99.90;;;;;;4993747;28;20008;-81
2021/05/16 11:31:19;;;;;;;;;;;11.60;99.90;;;;;;5013943;28;20444;-81
2021/05/16 11:33:46;;;;;;;;;;;11.70;99.90;;;;;;5004300;28;19913;-81
2021/05/16 11:36:16;;;;;;;;;;;11.90;99.90;;;;;;5016130;28;19914;-82
2021/05/16 11:38:46;;;;;;;;;;;12.20;99.90;;;;;;5000594;28;19920;-82
2021/05/16 11:41:26;;;;;;;;;;;12.60;99.90;;;;;;4996214;28;19968;-82
2021/05/16 11:43:52;;;;;;;;;;;12.90;99.90;;;;;;4991383;28;19918;-81
2021/05/16 11:46:32;;;;;;;;;;;13.00;99.90;;;;;;5015612;28;19913;-81
2021/05/16 11:49:00;;;;;;;;;;;12.90;99.90;;;;;;5001976;28;20416;-82
2021/05/16 11:51:26;;;;;;;;;;;12.60;99.90;;;;;;5042770;28;19914;-80
2021/05/16 11:53:55;;;;;;;;;;;12.50;99.90;;;;;;5010312;28;20346;-83
2021/05/16 11:56:22;;;;;;;;;;;12.40;99.90;;;;;;5003230;28;19914;-84
2021/05/16 11:58:52;;;;;;;;;;;12.40;99.90;;;;;;5012253;28;19921;-85
2021/05/16 12:01:18;;;;;;;;;;;12.30;99.90;;;;;;5004511;28;19919;-84
2021/05/16 12:04:01;;;;;;;;;;;12.20;99.90;;;;;;4995670;28;19964;-84
2021/05/16 12:06:30;;;;;;;;;;;12.00;99.90;;;;;;5011577;28;19972;-82
2021/05/16 12:08:59;;;;;;;;;;;11.80;99.90;;;;;;5014013;28;19919;-81
2021/05/16 12:11:25;;;;;;;;;;;11.60;99.90;;;;;;5008533;28;20436;-80
2021/05/16 12:13:50;;;;;;;;;;;11.50;99.90;;;;;;4992192;28;19914;-79
2021/05/16 12:16:20;;;;;;;;;;;11.50;99.90;;;;;;5026453;28;19971;-80
2021/05/16 12:18:46;;;;;;;;;;;11.50;99.90;;;;;;4993710;28;19921;-79
2021/05/16 12:21:15;;;;;;;;;;;11.70;99.90;;;;;;4997565;28;19977;-79
2021/05/16 12:23:48;;;;;;;;;;;11.80;99.90;;;;;;4990796;28;20421;-80
2021/05/16 12:26:14;;;;;;;;;;;11.80;99.90;;;;;;4994881;28;20352;-79
2021/05/16 12:28:40;;;;;;;;;;;11.90;99.90;;;;;;5010836;28;19957;-81
2021/05/16 12:31:06;;;;;;;;;;;12.00;99.90;;;;;;5026073;28;19920;-81
2021/05/16 12:33:32;;;;;;;;;;;12.00;99.90;;;;;;5002816;28;19913;-81
2021/05/16 12:35:57;;;;;;;;;;;12.10;99.90;;;;;;5001256;28;19914;-80
2021/05/16 12:38:23;;;;;;;;;;;12.10;99.90;;;;;;4999644;28;19917;-81
2021/05/16 12:40:48;;;;;;;;;;;12.00;99.90;;;;;;4990547;28;19914;-85
2021/05/16 12:43:18;;;;;;;;;;;11.80;99.90;;;;;;4988823;28;19913;-81
2021/05/16 12:45:44;;;;;;;;;;;11.80;99.90;;;;;;5000725;28;19969;-84
2021/05/16 12:48:11;;;;;;;;;;;11.80;99.90;;;;;;5003782;28;20003;-80
2021/05/16 12:50:38;;;;;;;;;;;11.90;99.90;;;;;;4990863;28;20000;-81
2021/05/16 12:53:25;;;;;;;;;;;12.00;99.90;;;;;;5003169;28;20481;-82
2021/05/16 12:55:52;;;;;;;;;;;12.20;99.90;;;;;;4995610;28;19921;-82
2021/05/16 12:58:23;;;;;;;;;;;12.50;99.90;;;;;;4996947;28;20004;-81
2021/05/16 13:00:52;;;;;;;;;;;12.80;99.90;;;;;;5014453;28;19921;-81
2021/05/16 13:03:26;;;;;;;;;;;13.10;99.90;;;;;;5028007;28;19913;-81
2021/05/16 13:05:51;;;;;;;;;;;13.50;99.90;;;;;;5009439;28;20369;-80
2021/05/16 13:08:36;;;;;;;;;;;13.80;99.90;;;;;;5012536;28;19921;-81
2021/05/16 13:11:03;;;;;;;;;;;13.90;99.90;;;;;;5026342;28;20008;-81
2021/05/16 13:13:33;;;;;;;;;;;14.00;99.90;;;;;;4996726;28;20008;-82
2021/05/16 13:16:03;;;;;;;;;;;14.10;99.90;;;;;;4996464;28;19913;-81
2021/05/16 13:18:28;;;;;;;;;;;14.00;99.90;;;;;;5003235;28;20013;-84
2021/05/16 13:20:55;;;;;;;;;;;14.10;99.90;;;;;;5031141;28;20064;-85
2021/05/16 13:23:26;;;;;;;;;;;14.20;99.90;;;;;;5028693;28;19913;-82
2021/05/16 13:25:52;;;;;;;;;;;14.40;99.90;;;;;;5025389;28;19956;-86
2021/05/16 13:28:20;;;;;;;;;;;14.50;99.90;;;;;;5021501;28;19928;-85
2021/05/16 13:30:54;;;;;;;;;;;14.60;99.90;;;;;;5038090;28;19962;-85
2021/05/16 13:33:20;;;;;;;;;;;14.90;99.90;;;;;;5026617;28;19914;-85
2021/05/16 13:35:46;;;;;;;;;;;15.30;99.90;;;;;;5033595;28;19922;-85
2021/05/16 13:38:12;;;;;;;;;;;15.70;99.90;;;;;;5042734;28;19921;-86
2021/05/16 13:40:37;;;;;;;;;;;16.00;99.90;;;;;;5030742;28;19925;-87
2021/05/16 13:43:03;;;;;;;;;;;16.40;99.90;;;;;;5048958;28;19921;-84
2021/05/16 13:45:29;;;;;;;;;;;16.60;99.90;;;;;;5022154;28;19929;-81
2021/05/16 13:47:55;;;;;;;;;;;16.80;99.90;;;;;;5051429;28;19901;-79
2021/05/16 13:50:20;;;;;;;;;;;16.80;99.90;;;;;;5010777;28;20243;-81
2021/05/16 13:52:50;;;;;;;;;;;16.90;99.90;;;;;;5022251;28;19921;-84
2021/05/16 13:55:17;;;;;;;;;;;17.00;99.90;;;;;;5007991;28;19949;-82
2021/05/16 13:57:42;;;;;;;;;;;16.90;99.90;;;;;;5020044;28;19918;-85
2021/05/16 14:00:08;;;;;;;;;;;16.90;99.90;;;;;;5005602;28;19920;-80
2021/05/16 14:02:33;;;;;;;;;;;16.90;99.90;;;;;;5017341;28;19964;-84
2021/05/16 14:04:59;;;;;;;;;;;17.00;99.90;;;;;;5029412;28;19921;-83
2021/05/16 14:07:24;;;;;;;;;;;17.00;99.90;;;;;;5026873;28;19918;-82
2021/05/16 14:09:50;;;;;;;;;;;17.00;99.90;;;;;;5001725;28;19913;-87
2021/05/16 14:12:15;;;;;;;;;;;17.10;99.90;;;;;;5019287;28;19914;-86
2021/05/16 14:14:41;;;;;;;;;;;17.10;99.90;;;;;;5017609;28;20267;-87
2021/05/16 14:17:06;;;;;;;;;;;17.30;99.90;;;;;;5010753;28;19965;-88